sensor_id;sensor_type;location;lat;lon;timestamp;temperature;humidity
70246;SHT30;57637;49.272;8.590;2024-03-08T00:01:09;4.93;78.95
70246;SHT30;57637;49.272;8.590;2024-03-08T00:03:34;4.84;79.02
70246;SHT30;57637;49.272;8.590;2024-03-08T00:06:00;4.79;79.28
70246;SHT30;57637;49.272;8.590;2024-03-08T00:08:25;4.77;79.19
70246;SHT30;57637;49.272;8.590;2024-03-08T00:10:51;4.76;79.15
70246;SHT30;57637;49.272;8.590;2024-03-08T00:13:16;4.79;78.90
70246;SHT30;57637;49.272;8.590;2024-03-08T00:15:42;4.67;79.30
70246;SHT30;57637;49.272;8.590;2024-03-08T00:18:07;4.61;79.50
70246;SHT30;57637;49.272;8.590;2024-03-08T00:20:32;4.66;79.23
70246;SHT30;57637;49.272;8.590;2024-03-08T00:22:58;4.67;78.88
70246;SHT30;57637;49.272;8.590;2024-03-08T00:25:24;4.54;79.13
70246;SHT30;57637;49.272;8.590;2024-03-08T00:27:49;4.52;79.39
70246;SHT30;57637;49.272;8.590;2024-03-08T00:30:14;4.50;79.21
70246;SHT30;57637;49.272;8.590;2024-03-08T00:32:40;4.45;79.24
70246;SHT30;57637;49.272;8.590;2024-03-08T00:35:06;4.49;79.14
70246;SHT30;57637;49.272;8.590;2024-03-08T00:37:34;4.43;79.04
70246;SHT30;57637;49.272;8.590;2024-03-08T00:40:00;4.45;79.04
70246;SHT30;57637;49.272;8.590;2024-03-08T00:42:25;4.40;79.20
70246;SHT30;57637;49.272;8.590;2024-03-08T00:44:51;4.40;78.96
70246;SHT30;57637;49.272;8.590;2024-03-08T00:47:16;4.40;78.82
70246;SHT30;57637;49.272;8.590;2024-03-08T00:49:42;4.42;78.66
70246;SHT30;57637;49.272;8.590;2024-03-08T00:52:07;4.36;78.81
70246;SHT30;57637;49.272;8.590;2024-03-08T00:54:34;4.30;78.87
70246;SHT30;57637;49.272;8.590;2024-03-08T00:57:01;4.28;79.06
70246;SHT30;57637;49.272;8.590;2024-03-08T00:59:28;4.19;79.34
70246;SHT30;57637;49.272;8.590;2024-03-08T01:01:54;4.26;79.18
70246;SHT30;57637;49.272;8.590;2024-03-08T01:04:19;4.10;79.45
70246;SHT30;57637;49.272;8.590;2024-03-08T01:06:46;4.12;79.40
70246;SHT30;57637;49.272;8.590;2024-03-08T01:09:12;4.05;79.64
70246;SHT30;57637;49.272;8.590;2024-03-08T01:11:38;4.06;79.56
70246;SHT30;57637;49.272;8.590;2024-03-08T01:14:03;4.02;79.68
70246;SHT30;57637;49.272;8.590;2024-03-08T01:16:29;4.01;79.57
70246;SHT30;57637;49.272;8.590;2024-03-08T01:18:54;3.97;79.90
70246;SHT30;57637;49.272;8.590;2024-03-08T01:21:20;3.92;79.91
70246;SHT30;57637;49.272;8.590;2024-03-08T01:23:45;3.87;80.13
70246;SHT30;57637;49.272;8.590;2024-03-08T01:26:10;3.82;80.25
70246;SHT30;57637;49.272;8.590;2024-03-08T01:28:36;3.81;80.52
70246;SHT30;57637;49.272;8.590;2024-03-08T01:31:02;3.73;80.72
70246;SHT30;57637;49.272;8.590;2024-03-08T01:33:29;3.65;80.91
70246;SHT30;57637;49.272;8.590;2024-03-08T01:35:55;3.63;81.06
70246;SHT30;57637;49.272;8.590;2024-03-08T01:38:22;3.56;81.21
70246;SHT30;57637;49.272;8.590;2024-03-08T01:40:47;3.51;81.51
70246;SHT30;57637;49.272;8.590;2024-03-08T01:45:45;3.41;81.72
70246;SHT30;57637;49.272;8.590;2024-03-08T01:48:11;3.38;81.67
70246;SHT30;57637;49.272;8.590;2024-03-08T01:50:37;3.33;82.07
70246;SHT30;57637;49.272;8.590;2024-03-08T01:53:04;3.31;82.08
70246;SHT30;57637;49.272;8.590;2024-03-08T01:55:30;3.26;82.00
70246;SHT30;57637;49.272;8.590;2024-03-08T01:57:56;3.20;82.03
70246;SHT30;57637;49.272;8.590;2024-03-08T02:00:22;3.24;81.87
70246;SHT30;57637;49.272;8.590;2024-03-08T02:02:48;3.23;82.07
70246;SHT30;57637;49.272;8.590;2024-03-08T02:05:15;3.16;82.14
70246;SHT30;57637;49.272;8.590;2024-03-08T02:07:41;3.06;82.24
70246;SHT30;57637;49.272;8.590;2024-03-08T02:10:09;3.09;82.35
70246;SHT30;57637;49.272;8.590;2024-03-08T02:12:37;3.02;82.66
70246;SHT30;57637;49.272;8.590;2024-03-08T02:15:03;2.95;82.87
70246;SHT30;57637;49.272;8.590;2024-03-08T02:17:29;2.96;83.03
70246;SHT30;57637;49.272;8.590;2024-03-08T02:19:55;2.93;83.10
70246;SHT30;57637;49.272;8.590;2024-03-08T02:22:21;2.89;83.26
70246;SHT30;57637;49.272;8.590;2024-03-08T02:24:47;2.83;83.21
70246;SHT30;57637;49.272;8.590;2024-03-08T02:27:13;2.88;83.34
70246;SHT30;57637;49.272;8.590;2024-03-08T02:29:38;2.83;83.44
70246;SHT30;57637;49.272;8.590;2024-03-08T02:32:06;2.82;83.19
70246;SHT30;57637;49.272;8.590;2024-03-08T02:34:31;2.81;83.06
70246;SHT30;57637;49.272;8.590;2024-03-08T02:36:56;2.82;83.13
70246;SHT30;57637;49.272;8.590;2024-03-08T02:39:22;2.82;83.35
70246;SHT30;57637;49.272;8.590;2024-03-08T02:41:47;2.78;83.44
70246;SHT30;57637;49.272;8.590;2024-03-08T02:44:12;2.73;83.55
70246;SHT30;57637;49.272;8.590;2024-03-08T02:46:38;2.76;83.43
70246;SHT30;57637;49.272;8.590;2024-03-08T02:49:04;2.69;83.56
70246;SHT30;57637;49.272;8.590;2024-03-08T02:51:29;2.66;83.78
70246;SHT30;57637;49.272;8.590;2024-03-08T02:53:56;2.65;83.75
70246;SHT30;57637;49.272;8.590;2024-03-08T02:56:21;2.59;83.94
70246;SHT30;57637;49.272;8.590;2024-03-08T02:58:49;2.68;83.74
70246;SHT30;57637;49.272;8.590;2024-03-08T03:01:15;2.63;83.71
70246;SHT30;57637;49.272;8.590;2024-03-08T03:03:41;2.69;83.42
70246;SHT30;57637;49.272;8.590;2024-03-08T03:06:06;2.65;83.67
70246;SHT30;57637;49.272;8.590;2024-03-08T03:08:32;2.66;83.66
70246;SHT30;57637;49.272;8.590;2024-03-08T03:10:57;2.58;83.70
70246;SHT30;57637;49.272;8.590;2024-03-08T03:13:23;2.61;83.95
70246;SHT30;57637;49.272;8.590;2024-03-08T03:15:48;2.63;83.90
70246;SHT30;57637;49.272;8.590;2024-03-08T03:18:14;2.61;83.85
70246;SHT30;57637;49.272;8.590;2024-03-08T03:20:40;2.55;84.03
70246;SHT30;57637;49.272;8.590;2024-03-08T03:23:07;2.58;83.95
70246;SHT30;57637;49.272;8.590;2024-03-08T03:25:34;2.52;83.88
70246;SHT30;57637;49.272;8.590;2024-03-08T03:28:00;2.55;84.05
70246;SHT30;57637;49.272;8.590;2024-03-08T03:30:26;2.52;84.29
70246;SHT30;57637;49.272;8.590;2024-03-08T03:32:55;2.52;84.25
70246;SHT30;57637;49.272;8.590;2024-03-08T03:35:23;2.49;84.28
70246;SHT30;57637;49.272;8.590;2024-03-08T03:37:49;2.46;84.48
70246;SHT30;57637;49.272;8.590;2024-03-08T03:40:47;2.44;84.38
70246;SHT30;57637;49.272;8.590;2024-03-08T03:43:13;2.42;84.59
70246;SHT30;57637;49.272;8.590;2024-03-08T03:45:39;2.38;84.64
70246;SHT30;57637;49.272;8.590;2024-03-08T03:48:06;2.42;84.30
70246;SHT30;57637;49.272;8.590;2024-03-08T03:50:34;2.42;84.45
70246;SHT30;57637;49.272;8.590;2024-03-08T03:53:00;2.37;84.60
70246;SHT30;57637;49.272;8.590;2024-03-08T03:55:25;2.32;84.87
70246;SHT30;57637;49.272;8.590;2024-03-08T03:57:52;2.35;84.90
70246;SHT30;57637;49.272;8.590;2024-03-08T04:00:17;2.42;84.41
70246;SHT30;57637;49.272;8.590;2024-03-08T04:02:43;2.41;84.49
70246;SHT30;57637;49.272;8.590;2024-03-08T04:05:09;2.40;84.09
70246;SHT30;57637;49.272;8.590;2024-03-08T04:07:36;2.37;84.48
70246;SHT30;57637;49.272;8.590;2024-03-08T04:10:02;2.40;84.48
70246;SHT30;57637;49.272;8.590;2024-03-08T04:12:28;2.38;84.48
70246;SHT30;57637;49.272;8.590;2024-03-08T04:14:54;2.38;84.56
70246;SHT30;57637;49.272;8.590;2024-03-08T04:17:20;2.31;84.61
70246;SHT30;57637;49.272;8.590;2024-03-08T04:19:46;2.27;84.87
70246;SHT30;57637;49.272;8.590;2024-03-08T04:22:13;2.30;84.80
70246;SHT30;57637;49.272;8.590;2024-03-08T04:24:39;2.30;84.83
70246;SHT30;57637;49.272;8.590;2024-03-08T04:27:05;2.28;84.98
70246;SHT30;57637;49.272;8.590;2024-03-08T04:29:31;2.21;84.94
70246;SHT30;57637;49.272;8.590;2024-03-08T04:31:57;2.20;85.31
70246;SHT30;57637;49.272;8.590;2024-03-08T04:34:23;2.17;85.34
70246;SHT30;57637;49.272;8.590;2024-03-08T04:36:49;2.24;85.33
70246;SHT30;57637;49.272;8.590;2024-03-08T04:39:15;2.18;85.17
70246;SHT30;57637;49.272;8.590;2024-03-08T04:41:41;2.18;85.00
70246;SHT30;57637;49.272;8.590;2024-03-08T04:44:09;2.24;85.11
70246;SHT30;57637;49.272;8.590;2024-03-08T04:46:35;2.15;85.16
70246;SHT30;57637;49.272;8.590;2024-03-08T04:49:01;2.17;85.22
70246;SHT30;57637;49.272;8.590;2024-03-08T04:51:26;2.14;85.18
70246;SHT30;57637;49.272;8.590;2024-03-08T04:53:52;2.13;85.27
70246;SHT30;57637;49.272;8.590;2024-03-08T04:56:17;2.10;85.42
70246;SHT30;57637;49.272;8.590;2024-03-08T04:58:45;2.17;85.13
70246;SHT30;57637;49.272;8.590;2024-03-08T05:01:13;2.13;85.19
70246;SHT30;57637;49.272;8.590;2024-03-08T05:03:38;1.99;85.43
70246;SHT30;57637;49.272;8.590;2024-03-08T05:06:04;2.00;85.57
70246;SHT30;57637;49.272;8.590;2024-03-08T05:08:29;2.01;85.81
70246;SHT30;57637;49.272;8.590;2024-03-08T05:10:55;2.01;85.68
70246;SHT30;57637;49.272;8.590;2024-03-08T05:13:21;1.97;85.64
70246;SHT30;57637;49.272;8.590;2024-03-08T05:15:49;1.97;85.54
70246;SHT30;57637;49.272;8.590;2024-03-08T05:18:17;1.97;85.78
70246;SHT30;57637;49.272;8.590;2024-03-08T05:20:43;1.93;85.73
70246;SHT30;57637;49.272;8.590;2024-03-08T05:23:08;1.94;85.74
70246;SHT30;57637;49.272;8.590;2024-03-08T05:25:34;1.96;85.50
70246;SHT30;57637;49.272;8.590;2024-03-08T05:27:59;1.96;85.77
70246;SHT30;57637;49.272;8.590;2024-03-08T05:30:25;1.90;85.95
70246;SHT30;57637;49.272;8.590;2024-03-08T05:32:50;1.96;85.87
70246;SHT30;57637;49.272;8.590;2024-03-08T05:35:15;1.94;85.75
70246;SHT30;57637;49.272;8.590;2024-03-08T05:37:41;1.93;85.76
70246;SHT30;57637;49.272;8.590;2024-03-08T05:40:07;1.93;85.74
70246;SHT30;57637;49.272;8.590;2024-03-08T05:42:36;1.91;85.83
70246;SHT30;57637;49.272;8.590;2024-03-08T05:45:02;1.94;85.66
70246;SHT30;57637;49.272;8.590;2024-03-08T05:47:35;1.90;86.05
70246;SHT30;57637;49.272;8.590;2024-03-08T05:50:00;1.96;85.86
70246;SHT30;57637;49.272;8.590;2024-03-08T05:52:26;1.96;85.70
70246;SHT30;57637;49.272;8.590;2024-03-08T05:54:51;1.96;85.77
70246;SHT30;57637;49.272;8.590;2024-03-08T05:57:17;1.94;85.83
70246;SHT30;57637;49.272;8.590;2024-03-08T05:59:42;1.96;85.73
70246;SHT30;57637;49.272;8.590;2024-03-08T06:02:08;1.99;85.61
70246;SHT30;57637;49.272;8.590;2024-03-08T06:04:33;1.93;85.79
70246;SHT30;57637;49.272;8.590;2024-03-08T06:06:58;1.96;85.98
70246;SHT30;57637;49.272;8.590;2024-03-08T06:09:24;1.94;85.92
70246;SHT30;57637;49.272;8.590;2024-03-08T06:11:51;2.06;85.67
70246;SHT30;57637;49.272;8.590;2024-03-08T06:14:17;2.10;85.51
70246;SHT30;57637;49.272;8.590;2024-03-08T06:16:44;2.17;85.35
70246;SHT30;57637;49.272;8.590;2024-03-08T06:19:11;2.31;85.05
70246;SHT30;57637;49.272;8.590;2024-03-08T06:21:37;2.35;84.84
70246;SHT30;57637;49.272;8.590;2024-03-08T06:24:03;2.41;84.67
70246;SHT30;57637;49.272;8.590;2024-03-08T06:26:28;2.52;84.23
70246;SHT30;57637;49.272;8.590;2024-03-08T06:28:54;2.72;84.62
70246;SHT30;57637;49.272;8.590;2024-03-08T06:31:20;2.78;84.03
70246;SHT30;57637;49.272;8.590;2024-03-08T06:33:45;2.88;83.42
70246;SHT30;57637;49.272;8.590;2024-03-08T06:36:11;2.93;82.67
70246;SHT30;57637;49.272;8.590;2024-03-08T06:38:37;3.04;82.86
70246;SHT30;57637;49.272;8.590;2024-03-08T06:41:07;3.23;82.84
70246;SHT30;57637;49.272;8.590;2024-03-08T06:43:34;3.36;81.68
70246;SHT30;57637;49.272;8.590;2024-03-08T06:45:59;3.28;82.21
70246;SHT30;57637;49.272;8.590;2024-03-08T06:48:25;3.50;81.15
70246;SHT30;57637;49.272;8.590;2024-03-08T06:50:50;3.77;81.10
70246;SHT30;57637;49.272;8.590;2024-03-08T06:53:16;3.67;81.10
70246;SHT30;57637;49.272;8.590;2024-03-08T06:55:44;3.81;80.28
70246;SHT30;57637;49.272;8.590;2024-03-08T06:58:09;3.75;80.79
70246;SHT30;57637;49.272;8.590;2024-03-08T07:00:35;4.02;80.76
70246;SHT30;57637;49.272;8.590;2024-03-08T07:03:01;4.16;79.51
70246;SHT30;57637;49.272;8.590;2024-03-08T07:05:28;3.78;79.96
70246;SHT30;57637;49.272;8.590;2024-03-08T07:07:54;3.98;79.89
70246;SHT30;57637;49.272;8.590;2024-03-08T07:10:20;4.13;79.48
70246;SHT30;57637;49.272;8.590;2024-03-08T07:12:48;4.48;78.82
70246;SHT30;57637;49.272;8.590;2024-03-08T07:15:14;4.49;78.27
70246;SHT30;57637;49.272;8.590;2024-03-08T07:17:40;4.48;78.44
70246;SHT30;57637;49.272;8.590;2024-03-08T07:20:06;4.42;78.44
70246;SHT30;57637;49.272;8.590;2024-03-08T07:22:36;4.63;78.36
70246;SHT30;57637;49.272;8.590;2024-03-08T07:25:03;4.57;78.32
70246;SHT30;57637;49.272;8.590;2024-03-08T07:27:33;4.46;78.11
70246;SHT30;57637;49.272;8.590;2024-03-08T07:30:04;4.36;78.42
70246;SHT30;57637;49.272;8.590;2024-03-08T07:32:30;4.53;78.66
70246;SHT30;57637;49.272;8.590;2024-03-08T07:34:56;4.57;78.72
70246;SHT30;57637;49.272;8.590;2024-03-08T07:37:22;4.48;78.49
70246;SHT30;57637;49.272;8.590;2024-03-08T07:39:48;4.42;77.88
70246;SHT30;57637;49.272;8.590;2024-03-08T07:42:14;4.56;78.24
70246;SHT30;57637;49.272;8.590;2024-03-08T07:44:39;4.59;77.45
70246;SHT30;57637;49.272;8.590;2024-03-08T07:47:05;4.66;77.71
70246;SHT30;57637;49.272;8.590;2024-03-08T07:49:34;4.54;77.62
70246;SHT30;57637;49.272;8.590;2024-03-08T07:51:59;4.63;77.94
70246;SHT30;57637;49.272;8.590;2024-03-08T07:54:24;4.43;77.74
70246;SHT30;57637;49.272;8.590;2024-03-08T07:56:51;4.49;77.48
70246;SHT30;57637;49.272;8.590;2024-03-08T07:59:17;4.64;77.59
70246;SHT30;57637;49.272;8.590;2024-03-08T08:01:43;4.63;77.53
70246;SHT30;57637;49.272;8.590;2024-03-08T08:04:09;4.80;77.30
70246;SHT30;57637;49.272;8.590;2024-03-08T08:06:38;4.77;77.59
70246;SHT30;57637;49.272;8.590;2024-03-08T08:09:06;4.94;76.80
70246;SHT30;57637;49.272;8.590;2024-03-08T08:11:39;4.98;76.72
70246;SHT30;57637;49.272;8.590;2024-03-08T08:14:06;4.80;76.78
70246;SHT30;57637;49.272;8.590;2024-03-08T08:16:34;4.79;76.88
70246;SHT30;57637;49.272;8.590;2024-03-08T08:19:01;4.74;76.95
70246;SHT30;57637;49.272;8.590;2024-03-08T08:21:28;4.69;76.70
70246;SHT30;57637;49.272;8.590;2024-03-08T08:23:54;4.81;76.82
70246;SHT30;57637;49.272;8.590;2024-03-08T08:26:19;4.83;77.04
70246;SHT30;57637;49.272;8.590;2024-03-08T08:28:46;4.94;76.77
70246;SHT30;57637;49.272;8.590;2024-03-08T08:31:11;4.80;76.80
70246;SHT30;57637;49.272;8.590;2024-03-08T08:33:38;4.91;76.78
70246;SHT30;57637;49.272;8.590;2024-03-08T08:36:03;4.98;77.00
70246;SHT30;57637;49.272;8.590;2024-03-08T08:38:29;5.03;76.47
70246;SHT30;57637;49.272;8.590;2024-03-08T08:40:54;4.97;76.30
70246;SHT30;57637;49.272;8.590;2024-03-08T08:43:21;4.98;76.28
70246;SHT30;57637;49.272;8.590;2024-03-08T08:45:49;5.01;76.58
70246;SHT30;57637;49.272;8.590;2024-03-08T08:48:18;5.05;76.69
70246;SHT30;57637;49.272;8.590;2024-03-08T08:50:43;5.08;76.22
70246;SHT30;57637;49.272;8.590;2024-03-08T08:53:10;5.39;76.21
70246;SHT30;57637;49.272;8.590;2024-03-08T08:55:35;5.25;75.84
70246;SHT30;57637;49.272;8.590;2024-03-08T08:58:01;5.25;76.31
70246;SHT30;57637;49.272;8.590;2024-03-08T09:00:28;5.12;76.13
70246;SHT30;57637;49.272;8.590;2024-03-08T09:02:56;5.18;75.64
70246;SHT30;57637;49.272;8.590;2024-03-08T09:05:22;5.25;75.97
70246;SHT30;57637;49.272;8.590;2024-03-08T09:07:49;5.21;75.86
70246;SHT30;57637;49.272;8.590;2024-03-08T09:10:15;5.30;75.77
70246;SHT30;57637;49.272;8.590;2024-03-08T09:12:40;5.38;76.20
70246;SHT30;57637;49.272;8.590;2024-03-08T09:15:06;5.39;75.52
70246;SHT30;57637;49.272;8.590;2024-03-08T09:17:36;5.28;75.55
70246;SHT30;57637;49.272;8.590;2024-03-08T09:20:04;5.36;75.65
70246;SHT30;57637;49.272;8.590;2024-03-08T09:22:34;5.41;75.47
70246;SHT30;57637;49.272;8.590;2024-03-08T09:24:59;5.35;75.39
70246;SHT30;57637;49.272;8.590;2024-03-08T09:27:25;5.49;75.46
70246;SHT30;57637;49.272;8.590;2024-03-08T09:29:50;5.58;75.54
70246;SHT30;57637;49.272;8.590;2024-03-08T09:32:16;5.60;74.58
70246;SHT30;57637;49.272;8.590;2024-03-08T09:34:41;5.46;74.95
70246;SHT30;57637;49.272;8.590;2024-03-08T09:37:07;5.44;75.20
70246;SHT30;57637;49.272;8.590;2024-03-08T09:39:33;5.38;75.91
70246;SHT30;57637;49.272;8.590;2024-03-08T09:41:59;5.49;75.56
70246;SHT30;57637;49.272;8.590;2024-03-08T09:44:24;5.48;75.68
70246;SHT30;57637;49.272;8.590;2024-03-08T09:46:50;5.54;75.47
70246;SHT30;57637;49.272;8.590;2024-03-08T09:49:18;5.76;74.76
70246;SHT30;57637;49.272;8.590;2024-03-08T09:51:43;5.79;74.32
70246;SHT30;57637;49.272;8.590;2024-03-08T09:54:09;5.59;75.08
70246;SHT30;57637;49.272;8.590;2024-03-08T09:56:34;5.89;74.74
70246;SHT30;57637;49.272;8.590;2024-03-08T09:59:00;5.93;74.27
70246;SHT30;57637;49.272;8.590;2024-03-08T10:01:45;6.05;74.28
70246;SHT30;57637;49.272;8.590;2024-03-08T10:04:11;6.10;73.52
70246;SHT30;57637;49.272;8.590;2024-03-08T10:06:38;6.20;73.84
70246;SHT30;57637;49.272;8.590;2024-03-08T10:09:04;6.13;74.33
70246;SHT30;57637;49.272;8.590;2024-03-08T10:11:32;6.50;73.50
70246;SHT30;57637;49.272;8.590;2024-03-08T10:13:58;6.23;73.77
70246;SHT30;57637;49.272;8.590;2024-03-08T10:16:29;5.82;74.22
70246;SHT30;57637;49.272;8.590;2024-03-08T10:18:56;5.82;74.27
70246;SHT30;57637;49.272;8.590;2024-03-08T10:21:22;6.07;74.06
70246;SHT30;57637;49.272;8.590;2024-03-08T10:23:48;6.17;74.54
70246;SHT30;57637;49.272;8.590;2024-03-08T10:26:14;6.31;73.68
70246;SHT30;57637;49.272;8.590;2024-03-08T10:28:47;6.18;74.01
70246;SHT30;57637;49.272;8.590;2024-03-08T10:31:13;6.09;73.92
70246;SHT30;57637;49.272;8.590;2024-03-08T10:33:40;5.90;74.27
70246;SHT30;57637;49.272;8.590;2024-03-08T10:36:09;6.10;73.95
70246;SHT30;57637;49.272;8.590;2024-03-08T10:38:39;6.05;74.49
70246;SHT30;57637;49.272;8.590;2024-03-08T10:41:07;6.21;73.70
70246;SHT30;57637;49.272;8.590;2024-03-08T10:46:30;6.58;73.70
70246;SHT30;57637;49.272;8.590;2024-03-08T10:49:00;6.31;72.97
70246;SHT30;57637;49.272;8.590;2024-03-08T10:51:29;6.17;73.68
70246;SHT30;57637;49.272;8.590;2024-03-08T10:53:56;6.18;73.57
70246;SHT30;57637;49.272;8.590;2024-03-08T10:56:22;6.14;73.67
70246;SHT30;57637;49.272;8.590;2024-03-08T10:58:47;6.34;73.07
70246;SHT30;57637;49.272;8.590;2024-03-08T11:01:14;6.36;73.69
70246;SHT30;57637;49.272;8.590;2024-03-08T11:06:08;6.72;72.66
70246;SHT30;57637;49.272;8.590;2024-03-08T11:08:40;6.92;72.38
70246;SHT30;57637;49.272;8.590;2024-03-08T11:11:06;6.91;71.49
70246;SHT30;57637;49.272;8.590;2024-03-08T11:13:52;6.77;71.58
70246;SHT30;57637;49.272;8.590;2024-03-08T11:18:49;6.91;72.32
70246;SHT30;57637;49.272;8.590;2024-03-08T11:21:15;6.93;71.70
70246;SHT30;57637;49.272;8.590;2024-03-08T11:23:42;7.49;75.18
70246;SHT30;57637;49.272;8.590;2024-03-08T11:26:17;7.13;71.31
70246;SHT30;57637;49.272;8.590;2024-03-08T11:28:45;6.81;71.44
70246;SHT30;57637;49.272;8.590;2024-03-08T11:33:37;7.08;71.55
70246;SHT30;57637;49.272;8.590;2024-03-08T11:36:12;7.39;70.66
70246;SHT30;57637;49.272;8.590;2024-03-08T11:38:41;7.19;70.27
70246;SHT30;57637;49.272;8.590;2024-03-08T11:41:13;7.23;71.13
70246;SHT30;57637;49.272;8.590;2024-03-08T11:43:40;7.12;71.04
70246;SHT30;57637;49.272;8.590;2024-03-08T11:46:10;7.01;71.43
70246;SHT30;57637;49.272;8.590;2024-03-08T11:48:37;7.09;71.16
70246;SHT30;57637;49.272;8.590;2024-03-08T11:51:07;7.60;70.59
70246;SHT30;57637;49.272;8.590;2024-03-08T11:53:35;7.62;70.35
70246;SHT30;57637;49.272;8.590;2024-03-08T11:56:05;8.04;69.96
70246;SHT30;57637;49.272;8.590;2024-03-08T11:58:31;7.90;69.75
70246;SHT30;57637;49.272;8.590;2024-03-08T12:01:04;8.25;68.08
70246;SHT30;57637;49.272;8.590;2024-03-08T12:03:30;7.84;68.88
70246;SHT30;57637;49.272;8.590;2024-03-08T12:05:58;7.43;70.34
70246;SHT30;57637;49.272;8.590;2024-03-08T12:08:24;7.60;70.69
70246;SHT30;57637;49.272;8.590;2024-03-08T12:10:53;7.50;70.35
70246;SHT30;57637;49.272;8.590;2024-03-08T12:13:24;7.40;70.66
70246;SHT30;57637;49.272;8.590;2024-03-08T12:15:59;7.43;70.26
70246;SHT30;57637;49.272;8.590;2024-03-08T12:18:26;7.46;70.20
70246;SHT30;57637;49.272;8.590;2024-03-08T12:21:09;7.56;70.33
70246;SHT30;57637;49.272;8.590;2024-03-08T12:23:36;7.50;70.27
70246;SHT30;57637;49.272;8.590;2024-03-08T12:26:18;7.93;70.25
70246;SHT30;57637;49.272;8.590;2024-03-08T12:28:49;7.97;69.47
70246;SHT30;57637;49.272;8.590;2024-03-08T12:31:16;7.98;68.82
70246;SHT30;57637;49.272;8.590;2024-03-08T12:33:55;7.81;69.65
70246;SHT30;57637;49.272;8.590;2024-03-08T12:36:24;7.90;69.33
70246;SHT30;57637;49.272;8.590;2024-03-08T12:38:49;8.18;68.85
70246;SHT30;57637;49.272;8.590;2024-03-08T12:41:15;8.36;68.27
70246;SHT30;57637;49.272;8.590;2024-03-08T12:43:42;8.45;67.69
70246;SHT30;57637;49.272;8.590;2024-03-08T12:46:14;8.15;67.85
70246;SHT30;57637;49.272;8.590;2024-03-08T12:48:39;8.45;67.78
70246;SHT30;57637;49.272;8.590;2024-03-08T12:51:08;8.55;67.82
70246;SHT30;57637;49.272;8.590;2024-03-08T12:53:34;8.66;67.89
70246;SHT30;57637;49.272;8.590;2024-03-08T12:56:00;8.76;67.51
70246;SHT30;57637;49.272;8.590;2024-03-08T12:58:25;8.53;68.12
70246;SHT30;57637;49.272;8.590;2024-03-08T13:00:51;8.59;67.92
70246;SHT30;57637;49.272;8.590;2024-03-08T13:03:17;8.70;67.65
70246;SHT30;57637;49.272;8.590;2024-03-08T13:05:42;8.56;67.83
70246;SHT30;57637;49.272;8.590;2024-03-08T13:08:08;8.87;67.69
70246;SHT30;57637;49.272;8.590;2024-03-08T13:10:40;8.93;67.79
70246;SHT30;57637;49.272;8.590;2024-03-08T13:13:09;8.93;66.89
70246;SHT30;57637;49.272;8.590;2024-03-08T13:15:35;8.93;66.88
70246;SHT30;57637;49.272;8.590;2024-03-08T13:18:01;9.01;67.12
70246;SHT30;57637;49.272;8.590;2024-03-08T13:20:26;9.13;66.84
70246;SHT30;57637;49.272;8.590;2024-03-08T13:22:54;9.17;66.96
70246;SHT30;57637;49.272;8.590;2024-03-08T13:25:20;9.40;66.66
70246;SHT30;57637;49.272;8.590;2024-03-08T13:27:45;9.38;65.93
70246;SHT30;57637;49.272;8.590;2024-03-08T13:30:12;9.40;66.59
70246;SHT30;57637;49.272;8.590;2024-03-08T13:32:41;9.58;66.28
70246;SHT30;57637;49.272;8.590;2024-03-08T13:35:10;9.58;65.94
70246;SHT30;57637;49.272;8.590;2024-03-08T13:37:40;9.30;65.93
70246;SHT30;57637;49.272;8.590;2024-03-08T13:40:07;9.50;66.19
70246;SHT30;57637;49.272;8.590;2024-03-08T13:42:39;9.51;65.80
70246;SHT30;57637;49.272;8.590;2024-03-08T13:45:06;9.44;65.16
70246;SHT30;57637;49.272;8.590;2024-03-08T13:47:35;9.50;65.38
70246;SHT30;57637;49.272;8.590;2024-03-08T13:50:01;9.62;65.67
70246;SHT30;57637;49.272;8.590;2024-03-08T13:52:26;9.88;65.51
70246;SHT30;57637;49.272;8.590;2024-03-08T13:54:54;9.85;65.16
70246;SHT30;57637;49.272;8.590;2024-03-08T13:57:20;9.77;64.66
70246;SHT30;57637;49.272;8.590;2024-03-08T13:59:45;9.91;65.29
70246;SHT30;57637;49.272;8.590;2024-03-08T14:02:10;10.09;64.81
70246;SHT30;57637;49.272;8.590;2024-03-08T14:04:38;10.19;64.42
70246;SHT30;57637;49.272;8.590;2024-03-08T14:07:06;10.14;64.31
70246;SHT30;57637;49.272;8.590;2024-03-08T14:09:33;10.13;63.61
70246;SHT30;57637;49.272;8.590;2024-03-08T14:12:02;10.24;64.12
70246;SHT30;57637;49.272;8.590;2024-03-08T14:14:32;10.39;63.92
70246;SHT30;57637;49.272;8.590;2024-03-08T14:16:59;10.43;63.17
70246;SHT30;57637;49.272;8.590;2024-03-08T14:19:24;10.40;62.71
70246;SHT30;57637;49.272;8.590;2024-03-08T14:21:50;10.44;63.19
70246;SHT30;57637;49.272;8.590;2024-03-08T14:24:18;10.43;63.24
70246;SHT30;57637;49.272;8.590;2024-03-08T14:26:44;10.47;63.22
70246;SHT30;57637;49.272;8.590;2024-03-08T14:29:09;10.71;63.33
70246;SHT30;57637;49.272;8.590;2024-03-08T14:31:35;10.60;62.52
70246;SHT30;57637;49.272;8.590;2024-03-08T14:34:03;10.47;62.19
70246;SHT30;57637;49.272;8.590;2024-03-08T14:36:29;10.54;62.59
70246;SHT30;57637;49.272;8.590;2024-03-08T14:38:55;10.65;62.71
70246;SHT30;57637;49.272;8.590;2024-03-08T14:41:20;10.67;62.35
70246;SHT30;57637;49.272;8.590;2024-03-08T14:43:47;10.61;62.58
70246;SHT30;57637;49.272;8.590;2024-03-08T14:46:13;10.60;62.17
70246;SHT30;57637;49.272;8.590;2024-03-08T14:48:45;10.61;62.08
70246;SHT30;57637;49.272;8.590;2024-03-08T14:51:11;10.63;62.12
70246;SHT30;57637;49.272;8.590;2024-03-08T14:53:40;10.80;62.49
70246;SHT30;57637;49.272;8.590;2024-03-08T14:56:09;10.84;61.86
70246;SHT30;57637;49.272;8.590;2024-03-08T14:58:34;10.80;61.85
70246;SHT30;57637;49.272;8.590;2024-03-08T15:01:00;10.81;62.03
70246;SHT30;57637;49.272;8.590;2024-03-08T15:03:27;10.81;61.42
70246;SHT30;57637;49.272;8.590;2024-03-08T15:05:54;10.94;61.75
70246;SHT30;57637;49.272;8.590;2024-03-08T15:08:20;10.73;61.74
70246;SHT30;57637;49.272;8.590;2024-03-08T15:10:49;10.81;62.09
70246;SHT30;57637;49.272;8.590;2024-03-08T15:13:20;10.75;62.01
70246;SHT30;57637;49.272;8.590;2024-03-08T15:15:47;10.90;61.91
70246;SHT30;57637;49.272;8.590;2024-03-08T15:18:19;10.84;61.90
70246;SHT30;57637;49.272;8.590;2024-03-08T15:20:46;10.84;62.18
70246;SHT30;57637;49.272;8.590;2024-03-08T15:23:12;10.85;62.08
70246;SHT30;57637;49.272;8.590;2024-03-08T15:25:39;10.90;62.30
70246;SHT30;57637;49.272;8.590;2024-03-08T15:28:07;10.88;62.24
70246;SHT30;57637;49.272;8.590;2024-03-08T15:30:39;10.85;61.94
70246;SHT30;57637;49.272;8.590;2024-03-08T15:33:04;10.81;61.87
70246;SHT30;57637;49.272;8.590;2024-03-08T15:35:35;10.84;61.95
70246;SHT30;57637;49.272;8.590;2024-03-08T15:38:03;10.85;61.98
70246;SHT30;57637;49.272;8.590;2024-03-08T15:40:28;10.80;62.22
70246;SHT30;57637;49.272;8.590;2024-03-08T15:42:58;10.83;61.93
70246;SHT30;57637;49.272;8.590;2024-03-08T15:45:23;10.84;61.88
70246;SHT30;57637;49.272;8.590;2024-03-08T15:47:51;10.80;61.70
70246;SHT30;57637;49.272;8.590;2024-03-08T15:50:17;10.78;61.65
70246;SHT30;57637;49.272;8.590;2024-03-08T15:52:43;10.77;61.79
70246;SHT30;57637;49.272;8.590;2024-03-08T15:55:14;10.77;61.95